sensor_id;sensor_type;location;lat;lon;timestamp;pressure;altitude;pressure_sealevel;temperature
74536;BMP180;63013;51.104;-115.370;2022-11-20T00:01:31;87393.00;;;23.04
74536;BMP180;63013;51.104;-115.370;2022-11-20T00:03:59;87393.20;;;23.02
74536;BMP180;63013;51.104;-115.370;2022-11-20T00:06:28;87387.80;;;23.00
74536;BMP180;63013;51.104;-115.370;2022-11-20T00:09:00;87408.00;;;23.00
74536;BMP180;63013;51.104;-115.370;2022-11-20T00:11:30;87397.20;;;23.00
74536;BMP180;63013;51.104;-115.370;2022-11-20T00:14:00;87399.60;;;23.00
74536;BMP180;63013;51.104;-115.370;2022-11-20T00:16:30;87414.80;;;23.00
74536;BMP180;63013;51.104;-115.370;2022-11-20T00:18:58;87419.20;;;22.90
74536;BMP180;63013;51.104;-115.370;2022-11-20T00:21:27;87420.60;;;22.90
74536;BMP180;63013;51.104;-115.370;2022-11-20T00:23:56;87421.20;;;22.94
74536;BMP180;63013;51.104;-115.370;2022-11-20T00:26:26;87432.80;;;23.00
74536;BMP180;63013;51.104;-115.370;2022-11-20T00:28:59;87445.40;;;23.00
74536;BMP180;63013;51.104;-115.370;2022-11-20T00:31:27;87436.20;;;23.00
74536;BMP180;63013;51.104;-115.370;2022-11-20T00:33:54;87435.60;;;23.10
74536;BMP180;63013;51.104;-115.370;2022-11-20T00:36:25;87433.40;;;23.10
74536;BMP180;63013;51.104;-115.370;2022-11-20T00:38:54;87432.60;;;23.10
74536;BMP180;63013;51.104;-115.370;2022-11-20T00:41:23;87440.00;;;23.10
74536;BMP180;63013;51.104;-115.370;2022-11-20T00:43:53;87447.00;;;23.10
74536;BMP180;63013;51.104;-115.370;2022-11-20T00:46:23;87437.40;;;23.10
74536;BMP180;63013;51.104;-115.370;2022-11-20T00:48:50;87437.60;;;23.10
74536;BMP180;63013;51.104;-115.370;2022-11-20T00:51:22;87447.20;;;23.10
74536;BMP180;63013;51.104;-115.370;2022-11-20T00:53:49;87429.60;;;23.02
74536;BMP180;63013;51.104;-115.370;2022-11-20T00:56:18;87418.00;;;23.00
74536;BMP180;63013;51.104;-115.370;2022-11-20T00:58:48;87424.80;;;23.00
74536;BMP180;63013;51.104;-115.370;2022-11-20T01:01:19;87429.20;;;23.00
74536;BMP180;63013;51.104;-115.370;2022-11-20T01:03:49;87420.00;;;23.00
74536;BMP180;63013;51.104;-115.370;2022-11-20T01:06:20;87418.00;;;22.90
74536;BMP180;63013;51.104;-115.370;2022-11-20T01:08:50;87422.00;;;22.90
74536;BMP180;63013;51.104;-115.370;2022-11-20T01:11:26;87423.60;;;22.90
74536;BMP180;63013;51.104;-115.370;2022-11-20T01:13:55;87427.40;;;22.90
74536;BMP180;63013;51.104;-115.370;2022-11-20T01:16:29;87427.60;;;22.90
74536;BMP180;63013;51.104;-115.370;2022-11-20T01:19:01;87424.00;;;22.80
74536;BMP180;63013;51.104;-115.370;2022-11-20T01:21:35;87415.60;;;22.80
74536;BMP180;63013;51.104;-115.370;2022-11-20T01:24:04;87413.40;;;22.80
74536;BMP180;63013;51.104;-115.370;2022-11-20T01:26:34;87404.60;;;22.80
74536;BMP180;63013;51.104;-115.370;2022-11-20T01:29:02;87414.20;;;22.80
74536;BMP180;63013;51.104;-115.370;2022-11-20T01:31:33;87397.20;;;22.78
74536;BMP180;63013;51.104;-115.370;2022-11-20T01:34:09;87397.20;;;22.70
74536;BMP180;63013;51.104;-115.370;2022-11-20T01:36:38;87404.00;;;22.70
74536;BMP180;63013;51.104;-115.370;2022-11-20T01:39:11;87406.40;;;22.70
74536;BMP180;63013;51.104;-115.370;2022-11-20T01:41:40;87402.20;;;22.70
74536;BMP180;63013;51.104;-115.370;2022-11-20T01:47:38;87408.40;;;22.60
74536;BMP180;63013;51.104;-115.370;2022-11-20T01:50:27;87412.60;;;22.60
74536;BMP180;63013;51.104;-115.370;2022-11-20T01:53:05;87413.60;;;22.60
74536;BMP180;63013;51.104;-115.370;2022-11-20T01:55:41;87412.60;;;22.60
74536;BMP180;63013;51.104;-115.370;2022-11-20T01:58:09;87424.60;;;22.50
74536;BMP180;63013;51.104;-115.370;2022-11-20T02:00:37;87424.00;;;22.50
74536;BMP180;63013;51.104;-115.370;2022-11-20T02:03:12;87426.00;;;22.50
74536;BMP180;63013;51.104;-115.370;2022-11-20T02:08:39;87430.60;;;22.50
74536;BMP180;63013;51.104;-115.370;2022-11-20T02:11:06;87429.00;;;22.44
74536;BMP180;63013;51.104;-115.370;2022-11-20T02:13:34;87429.40;;;22.40
74536;BMP180;63013;51.104;-115.370;2022-11-20T02:16:21;87433.40;;;22.40
74536;BMP180;63013;51.104;-115.370;2022-11-20T02:18:50;87436.20;;;22.40
74536;BMP180;63013;51.104;-115.370;2022-11-20T02:24:16;87434.40;;;22.36
74536;BMP180;63013;51.104;-115.370;2022-11-20T02:27:11;87433.40;;;22.30
74536;BMP180;63013;51.104;-115.370;2022-11-20T02:29:51;87444.00;;;22.30
74536;BMP180;63013;51.104;-115.370;2022-11-20T02:32:24;87433.20;;;22.30
74536;BMP180;63013;51.104;-115.370;2022-11-20T02:34:52;87439.00;;;22.30
74536;BMP180;63013;51.104;-115.370;2022-11-20T02:37:20;87439.40;;;22.20
74536;BMP180;63013;51.104;-115.370;2022-11-20T02:39:51;87448.00;;;22.20
74536;BMP180;63013;51.104;-115.370;2022-11-20T02:42:18;87461.20;;;22.20
74536;BMP180;63013;51.104;-115.370;2022-11-20T02:44:45;87461.40;;;22.20
74536;BMP180;63013;51.104;-115.370;2022-11-20T02:47:12;87446.60;;;22.18
74536;BMP180;63013;51.104;-115.370;2022-11-20T02:49:39;87439.20;;;22.10
74536;BMP180;63013;51.104;-115.370;2022-11-20T02:52:07;87448.00;;;22.10
74536;BMP180;63013;51.104;-115.370;2022-11-20T02:54:34;87451.20;;;22.10
74536;BMP180;63013;51.104;-115.370;2022-11-20T02:57:01;87469.80;;;22.10
74536;BMP180;63013;51.104;-115.370;2022-11-20T02:59:28;87456.80;;;22.10
74536;BMP180;63013;51.104;-115.370;2022-11-20T03:01:55;87447.20;;;22.02
74536;BMP180;63013;51.104;-115.370;2022-11-20T03:04:21;87454.00;;;22.00
74536;BMP180;63013;51.104;-115.370;2022-11-20T03:06:49;87461.00;;;22.00
74536;BMP180;63013;51.104;-115.370;2022-11-20T03:09:16;87454.60;;;22.00
74536;BMP180;63013;51.104;-115.370;2022-11-20T03:11:43;87451.40;;;22.00
74536;BMP180;63013;51.104;-115.370;2022-11-20T03:14:10;87457.00;;;22.00
74536;BMP180;63013;51.104;-115.370;2022-11-20T03:16:36;87459.80;;;21.92
74536;BMP180;63013;51.104;-115.370;2022-11-20T03:19:03;87442.20;;;21.90
74536;BMP180;63013;51.104;-115.370;2022-11-20T03:21:30;87465.60;;;21.90
74536;BMP180;63013;51.104;-115.370;2022-11-20T03:23:59;87458.20;;;21.90
74536;BMP180;63013;51.104;-115.370;2022-11-20T03:26:27;87455.60;;;21.90
74536;BMP180;63013;51.104;-115.370;2022-11-20T03:29:00;87456.60;;;21.82
74536;BMP180;63013;51.104;-115.370;2022-11-20T03:31:35;87461.60;;;21.80
74536;BMP180;63013;51.104;-115.370;2022-11-20T03:34:04;87460.20;;;21.80
74536;BMP180;63013;51.104;-115.370;2022-11-20T03:36:31;87464.20;;;21.80
74536;BMP180;63013;51.104;-115.370;2022-11-20T03:38:59;87457.40;;;21.78
74536;BMP180;63013;51.104;-115.370;2022-11-20T03:41:30;87462.00;;;21.72
74536;BMP180;63013;51.104;-115.370;2022-11-20T03:44:04;87466.80;;;21.70
74536;BMP180;63013;51.104;-115.370;2022-11-20T03:46:32;87454.60;;;21.70
74536;BMP180;63013;51.104;-115.370;2022-11-20T03:48:59;87454.80;;;21.70
74536;BMP180;63013;51.104;-115.370;2022-11-20T03:51:31;87452.80;;;21.70
74536;BMP180;63013;51.104;-115.370;2022-11-20T03:54:02;87460.20;;;21.60
74536;BMP180;63013;51.104;-115.370;2022-11-20T03:56:32;87460.20;;;21.60
74536;BMP180;63013;51.104;-115.370;2022-11-20T03:59:00;87462.60;;;21.60
74536;BMP180;63013;51.104;-115.370;2022-11-20T04:01:30;87455.80;;;21.60
74536;BMP180;63013;51.104;-115.370;2022-11-20T04:03:58;87457.60;;;21.60
74536;BMP180;63013;51.104;-115.370;2022-11-20T04:06:27;87456.00;;;21.56
74536;BMP180;63013;51.104;-115.370;2022-11-20T04:08:56;87462.00;;;21.50
74536;BMP180;63013;51.104;-115.370;2022-11-20T04:11:30;87466.00;;;21.50
74536;BMP180;63013;51.104;-115.370;2022-11-20T04:14:01;87449.20;;;21.50
74536;BMP180;63013;51.104;-115.370;2022-11-20T04:16:34;87450.20;;;21.50
74536;BMP180;63013;51.104;-115.370;2022-11-20T04:19:06;87453.00;;;21.50
74536;BMP180;63013;51.104;-115.370;2022-11-20T04:21:33;87446.80;;;21.44
74536;BMP180;63013;51.104;-115.370;2022-11-20T04:24:01;87461.60;;;21.40
74536;BMP180;63013;51.104;-115.370;2022-11-20T04:26:30;87463.60;;;21.40
74536;BMP180;63013;51.104;-115.370;2022-11-20T04:28:58;87479.40;;;21.40
74536;BMP180;63013;51.104;-115.370;2022-11-20T04:31:28;87473.80;;;21.40
74536;BMP180;63013;51.104;-115.370;2022-11-20T04:34:01;87484.60;;;21.40
74536;BMP180;63013;51.104;-115.370;2022-11-20T04:36:29;87482.80;;;21.36
74536;BMP180;63013;51.104;-115.370;2022-11-20T04:38:59;87481.60;;;21.32
74536;BMP180;63013;51.104;-115.370;2022-11-20T04:41:31;87483.60;;;21.30
74536;BMP180;63013;51.104;-115.370;2022-11-20T04:44:02;87491.00;;;21.30
74536;BMP180;63013;51.104;-115.370;2022-11-20T04:46:41;87484.40;;;21.30
74536;BMP180;63013;51.104;-115.370;2022-11-20T04:49:10;87474.00;;;21.30
74536;BMP180;63013;51.104;-115.370;2022-11-20T04:51:38;87468.20;;;21.30
74536;BMP180;63013;51.104;-115.370;2022-11-20T04:54:05;87483.80;;;21.30
74536;BMP180;63013;51.104;-115.370;2022-11-20T04:56:32;87480.40;;;21.26
74536;BMP180;63013;51.104;-115.370;2022-11-20T04:59:02;87479.00;;;21.20
74536;BMP180;63013;51.104;-115.370;2022-11-20T05:01:29;87483.00;;;21.20
74536;BMP180;63013;51.104;-115.370;2022-11-20T05:03:57;87470.40;;;21.20
74536;BMP180;63013;51.104;-115.370;2022-11-20T05:06:24;87467.20;;;21.20
74536;BMP180;63013;51.104;-115.370;2022-11-20T05:08:51;87459.20;;;21.20
74536;BMP180;63013;51.104;-115.370;2022-11-20T05:11:20;87471.00;;;21.20
74536;BMP180;63013;51.104;-115.370;2022-11-20T05:13:50;87465.60;;;21.12
74536;BMP180;63013;51.104;-115.370;2022-11-20T05:16:22;87466.40;;;21.10
74536;BMP180;63013;51.104;-115.370;2022-11-20T05:18:50;87455.20;;;21.10
74536;BMP180;63013;51.104;-115.370;2022-11-20T05:21:18;87459.20;;;21.10
74536;BMP180;63013;51.104;-115.370;2022-11-20T05:23:46;87494.20;;;21.10
74536;BMP180;63013;51.104;-115.370;2022-11-20T05:26:20;87484.40;;;21.10
74536;BMP180;63013;51.104;-115.370;2022-11-20T05:28:51;87482.40;;;21.10
74536;BMP180;63013;51.104;-115.370;2022-11-20T05:31:24;87482.00;;;21.02
74536;BMP180;63013;51.104;-115.370;2022-11-20T05:33:51;87496.80;;;21.00
74536;BMP180;63013;51.104;-115.370;2022-11-20T05:36:18;87465.60;;;21.00
74536;BMP180;63013;51.104;-115.370;2022-11-20T05:38:46;87494.80;;;21.00
74536;BMP180;63013;51.104;-115.370;2022-11-20T05:41:19;87486.80;;;21.00
74536;BMP180;63013;51.104;-115.370;2022-11-20T05:43:48;87486.20;;;21.00
74536;BMP180;63013;51.104;-115.370;2022-11-20T05:46:18;87483.00;;;20.90
74536;BMP180;63013;51.104;-115.370;2022-11-20T05:48:46;87469.20;;;20.90
74536;BMP180;63013;51.104;-115.370;2022-11-20T05:51:18;87475.00;;;20.90
74536;BMP180;63013;51.104;-115.370;2022-11-20T05:53:45;87470.00;;;20.90
74536;BMP180;63013;51.104;-115.370;2022-11-20T05:56:19;87474.80;;;20.90
74536;BMP180;63013;51.104;-115.370;2022-11-20T05:58:47;87472.00;;;20.88
74536;BMP180;63013;51.104;-115.370;2022-11-20T06:01:21;87482.60;;;20.82
74536;BMP180;63013;51.104;-115.370;2022-11-20T06:03:49;87468.20;;;20.80
74536;BMP180;63013;51.104;-115.370;2022-11-20T06:06:19;87469.60;;;20.80
74536;BMP180;63013;51.104;-115.370;2022-11-20T06:08:47;87471.60;;;20.80
74536;BMP180;63013;51.104;-115.370;2022-11-20T06:11:16;87464.60;;;20.80
74536;BMP180;63013;51.104;-115.370;2022-11-20T06:13:44;87484.40;;;20.80
74536;BMP180;63013;51.104;-115.370;2022-11-20T06:16:15;87460.00;;;20.76
74536;BMP180;63013;51.104;-115.370;2022-11-20T06:18:42;87496.80;;;20.70
74536;BMP180;63013;51.104;-115.370;2022-11-20T06:21:21;87485.00;;;20.70
74536;BMP180;63013;51.104;-115.370;2022-11-20T06:23:50;87498.60;;;20.70
74536;BMP180;63013;51.104;-115.370;2022-11-20T06:26:21;87484.20;;;20.70
74536;BMP180;63013;51.104;-115.370;2022-11-20T06:28:50;87498.00;;;20.70
74536;BMP180;63013;51.104;-115.370;2022-11-20T06:31:21;87521.00;;;20.64
74536;BMP180;63013;51.104;-115.370;2022-11-20T06:33:49;87454.40;;;20.60
74536;BMP180;63013;51.104;-115.370;2022-11-20T06:36:20;87510.00;;;20.60
74536;BMP180;63013;51.104;-115.370;2022-11-20T06:38:48;87494.80;;;20.60
74536;BMP180;63013;51.104;-115.370;2022-11-20T06:41:20;87483.60;;;20.60
74536;BMP180;63013;51.104;-115.370;2022-11-20T06:43:48;87481.60;;;20.58
74536;BMP180;63013;51.104;-115.370;2022-11-20T06:46:17;87485.60;;;20.56
74536;BMP180;63013;51.104;-115.370;2022-11-20T06:48:45;87481.40;;;20.50
74536;BMP180;63013;51.104;-115.370;2022-11-20T06:51:12;87483.80;;;20.50
74536;BMP180;63013;51.104;-115.370;2022-11-20T06:53:40;87480.40;;;20.50
74536;BMP180;63013;51.104;-115.370;2022-11-20T06:56:08;87483.20;;;20.50
74536;BMP180;63013;51.104;-115.370;2022-11-20T06:58:36;87486.80;;;20.50
74536;BMP180;63013;51.104;-115.370;2022-11-20T07:01:10;87485.60;;;20.50
74536;BMP180;63013;51.104;-115.370;2022-11-20T07:03:37;87482.00;;;20.40
74536;BMP180;63013;51.104;-115.370;2022-11-20T07:06:06;87487.80;;;20.40
74536;BMP180;63013;51.104;-115.370;2022-11-20T07:08:34;87491.80;;;20.40
74536;BMP180;63013;51.104;-115.370;2022-11-20T07:11:04;87483.60;;;20.40
74536;BMP180;63013;51.104;-115.370;2022-11-20T07:13:32;87488.60;;;20.40
74536;BMP180;63013;51.104;-115.370;2022-11-20T07:16:06;87481.40;;;20.40
74536;BMP180;63013;51.104;-115.370;2022-11-20T07:18:33;87495.00;;;20.32
74536;BMP180;63013;51.104;-115.370;2022-11-20T07:21:03;87469.60;;;20.30
74536;BMP180;63013;51.104;-115.370;2022-11-20T07:23:30;87482.40;;;20.30
74536;BMP180;63013;51.104;-115.370;2022-11-20T07:25:57;87480.40;;;20.30
74536;BMP180;63013;51.104;-115.370;2022-11-20T07:28:24;87470.40;;;20.30
74536;BMP180;63013;51.104;-115.370;2022-11-20T07:30:54;87476.60;;;20.24
74536;BMP180;63013;51.104;-115.370;2022-11-20T07:33:21;87475.80;;;20.20
74536;BMP180;63013;51.104;-115.370;2022-11-20T07:35:48;87467.40;;;20.20
74536;BMP180;63013;51.104;-115.370;2022-11-20T07:38:15;87442.20;;;20.20
74536;BMP180;63013;51.104;-115.370;2022-11-20T07:40:42;87457.80;;;20.20
74536;BMP180;63013;51.104;-115.370;2022-11-20T07:43:09;87462.80;;;20.20
74536;BMP180;63013;51.104;-115.370;2022-11-20T07:45:36;87451.00;;;20.10
74536;BMP180;63013;51.104;-115.370;2022-11-20T07:48:03;87452.80;;;20.10
74536;BMP180;63013;51.104;-115.370;2022-11-20T07:50:30;87447.60;;;20.10
74536;BMP180;63013;51.104;-115.370;2022-11-20T07:53:07;87452.00;;;20.10
74536;BMP180;63013;51.104;-115.370;2022-11-20T07:55:34;87453.60;;;20.10
74536;BMP180;63013;51.104;-115.370;2022-11-20T07:58:01;87448.00;;;20.10
74536;BMP180;63013;51.104;-115.370;2022-11-20T08:00:28;87441.60;;;20.08
74536;BMP180;63013;51.104;-115.370;2022-11-20T08:02:55;87447.60;;;20.00
74536;BMP180;63013;51.104;-115.370;2022-11-20T08:05:22;87447.40;;;20.00
74536;BMP180;63013;51.104;-115.370;2022-11-20T08:07:49;87439.20;;;20.00
74536;BMP180;63013;51.104;-115.370;2022-11-20T08:10:16;87432.80;;;20.00
74536;BMP180;63013;51.104;-115.370;2022-11-20T08:12:48;87435.80;;;19.98
74536;BMP180;63013;51.104;-115.370;2022-11-20T08:15:34;87440.60;;;19.92
74536;BMP180;63013;51.104;-115.370;2022-11-20T08:18:11;87427.40;;;19.90
74536;BMP180;63013;51.104;-115.370;2022-11-20T08:20:39;87434.20;;;19.90
74536;BMP180;63013;51.104;-115.370;2022-11-20T08:23:07;87416.60;;;19.90
74536;BMP180;63013;51.104;-115.370;2022-11-20T08:25:36;87412.60;;;19.90
74536;BMP180;63013;51.104;-115.370;2022-11-20T08:28:08;87410.40;;;19.90
74536;BMP180;63013;51.104;-115.370;2022-11-20T08:30:36;87412.60;;;19.80
74536;BMP180;63013;51.104;-115.370;2022-11-20T08:33:07;87410.60;;;19.80
74536;BMP180;63013;51.104;-115.370;2022-11-20T08:35:37;87418.80;;;19.80
74536;BMP180;63013;51.104;-115.370;2022-11-20T08:38:05;87411.80;;;19.80
74536;BMP180;63013;51.104;-115.370;2022-11-20T08:40:33;87423.40;;;19.80
74536;BMP180;63013;51.104;-115.370;2022-11-20T08:43:00;87422.80;;;19.70
74536;BMP180;63013;51.104;-115.370;2022-11-20T08:45:27;87425.60;;;19.70
74536;BMP180;63013;51.104;-115.370;2022-11-20T08:48:00;87430.00;;;19.70
74536;BMP180;63013;51.104;-115.370;2022-11-20T08:50:27;87433.60;;;19.70
74536;BMP180;63013;51.104;-115.370;2022-11-20T08:52:54;87431.00;;;19.70
74536;BMP180;63013;51.104;-115.370;2022-11-20T08:55:21;87431.20;;;19.60
74536;BMP180;63013;51.104;-115.370;2022-11-20T08:57:48;87430.40;;;19.60
74536;BMP180;63013;51.104;-115.370;2022-11-20T09:00:16;87430.80;;;19.60
74536;BMP180;63013;51.104;-115.370;2022-11-20T09:02:43;87423.00;;;19.60
74536;BMP180;63013;51.104;-115.370;2022-11-20T09:05:10;87431.20;;;19.60
74536;BMP180;63013;51.104;-115.370;2022-11-20T09:07:37;87435.60;;;19.52
74536;BMP180;63013;51.104;-115.370;2022-11-20T09:10:05;87432.20;;;19.50
74536;BMP180;63013;51.104;-115.370;2022-11-20T09:12:33;87432.20;;;19.50
74536;BMP180;63013;51.104;-115.370;2022-11-20T09:15:00;87433.40;;;19.50
74536;BMP180;63013;51.104;-115.370;2022-11-20T09:17:27;87427.40;;;19.50
74536;BMP180;63013;51.104;-115.370;2022-11-20T09:19:54;87442.00;;;19.50
74536;BMP180;63013;51.104;-115.370;2022-11-20T09:22:21;87424.80;;;19.40
74536;BMP180;63013;51.104;-115.370;2022-11-20T09:24:48;87438.20;;;19.40
74536;BMP180;63013;51.104;-115.370;2022-11-20T09:27:15;87435.20;;;19.40
74536;BMP180;63013;51.104;-115.370;2022-11-20T09:29:52;87431.40;;;19.40
74536;BMP180;63013;51.104;-115.370;2022-11-20T09:32:19;87422.20;;;19.40
74536;BMP180;63013;51.104;-115.370;2022-11-20T09:34:45;87423.20;;;19.38
74536;BMP180;63013;51.104;-115.370;2022-11-20T09:37:13;87417.20;;;19.36
74536;BMP180;63013;51.104;-115.370;2022-11-20T09:39:40;87425.60;;;19.30
74536;BMP180;63013;51.104;-115.370;2022-11-20T09:45:30;87417.40;;;19.30
74536;BMP180;63013;51.104;-115.370;2022-11-20T09:54:34;87427.60;;;19.26
74536;BMP180;63013;51.104;-115.370;2022-11-20T09:57:11;87419.20;;;19.20
74536;BMP180;63013;51.104;-115.370;2022-11-20T09:59:46;87434.60;;;19.20
74536;BMP180;63013;51.104;-115.370;2022-11-20T10:02:49;87439.60;;;19.20
74536;BMP180;63013;51.104;-115.370;2022-11-20T10:10:51;87435.60;;;19.16
74536;BMP180;63013;51.104;-115.370;2022-11-20T10:28:49;87435.20;;;19.00
74536;BMP180;63013;51.104;-115.370;2022-11-20T10:31:50;87439.00;;;19.00
74536;BMP180;63013;51.104;-115.370;2022-11-20T10:34:35;87445.20;;;19.00
74536;BMP180;63013;51.104;-115.370;2022-11-20T10:37:27;87432.40;;;18.90
74536;BMP180;63013;51.104;-115.370;2022-11-20T10:40:39;87432.40;;;18.90
74536;BMP180;63013;51.104;-115.370;2022-11-20T10:43:18;87430.00;;;18.90
74536;BMP180;63013;51.104;-115.370;2022-11-20T10:48:27;87436.20;;;18.90
74536;BMP180;63013;51.104;-115.370;2022-11-20T10:56:53;87446.80;;;18.80
74536;BMP180;63013;51.104;-115.370;2022-11-20T10:59:55;87446.80;;;18.80
74536;BMP180;63013;51.104;-115.370;2022-11-20T11:02:49;87456.20;;;18.80
74536;BMP180;63013;51.104;-115.370;2022-11-20T11:08:40;87448.00;;;18.70
74536;BMP180;63013;51.104;-115.370;2022-11-20T11:11:33;87445.60;;;18.70
74536;BMP180;63013;51.104;-115.370;2022-11-20T11:14:12;87444.60;;;18.70
74536;BMP180;63013;51.104;-115.370;2022-11-20T11:16:57;87449.00;;;18.70
74536;BMP180;63013;51.104;-115.370;2022-11-20T11:19:24;87444.80;;;18.70
74536;BMP180;63013;51.104;-115.370;2022-11-20T11:21:56;87450.00;;;18.62
74536;BMP180;63013;51.104;-115.370;2022-11-20T11:24:29;87440.60;;;18.60
74536;BMP180;63013;51.104;-115.370;2022-11-20T11:27:12;87447.60;;;18.60
74536;BMP180;63013;51.104;-115.370;2022-11-20T11:29:39;87455.60;;;18.60
74536;BMP180;63013;51.104;-115.370;2022-11-20T11:34:35;87453.60;;;18.60
74536;BMP180;63013;51.104;-115.370;2022-11-20T11:37:03;87455.80;;;18.60
74536;BMP180;63013;51.104;-115.370;2022-11-20T11:39:33;87457.40;;;18.60
74536;BMP180;63013;51.104;-115.370;2022-11-20T11:42:01;87461.60;;;18.60
74536;BMP180;63013;51.104;-115.370;2022-11-20T11:44:34;87458.40;;;18.60
74536;BMP180;63013;51.104;-115.370;2022-11-20T11:48:04;87446.40;;;18.54
74536;BMP180;63013;51.104;-115.370;2022-11-20T11:50:28;87439.80;;;18.50
74536;BMP180;63013;51.104;-115.370;2022-11-20T11:53:13;87437.80;;;18.50
74536;BMP180;63013;51.104;-115.370;2022-11-20T11:55:58;87441.60;;;18.50
74536;BMP180;63013;51.104;-115.370;2022-11-20T11:58:52;87441.00;;;18.50
74536;BMP180;63013;51.104;-115.370;2022-11-20T12:04:42;87442.40;;;18.40
74536;BMP180;63013;51.104;-115.370;2022-11-20T12:07:20;87438.40;;;18.40
74536;BMP180;63013;51.104;-115.370;2022-11-20T12:09:54;87448.00;;;18.40
74536;BMP180;63013;51.104;-115.370;2022-11-20T12:12:38;87436.60;;;18.40
74536;BMP180;63013;51.104;-115.370;2022-11-20T12:15:16;87436.00;;;18.40
74536;BMP180;63013;51.104;-115.370;2022-11-20T12:17:48;87437.60;;;18.40
74536;BMP180;63013;51.104;-115.370;2022-11-20T12:20:15;87438.00;;;18.40
74536;BMP180;63013;51.104;-115.370;2022-11-20T12:25:48;87429.40;;;18.30
74536;BMP180;63013;51.104;-115.370;2022-11-20T12:28:36;87416.40;;;18.30
74536;BMP180;63013;51.104;-115.370;2022-11-20T12:31:27;87410.20;;;18.30
74536;BMP180;63013;51.104;-115.370;2022-11-20T12:34:23;87412.60;;;18.30
74536;BMP180;63013;51.104;-115.370;2022-11-20T12:43:21;87393.80;;;18.20
74536;BMP180;63013;51.104;-115.370;2022-11-20T12:46:46;87397.40;;;18.20
74536;BMP180;63013;51.104;-115.370;2022-11-20T12:49:37;87396.80;;;18.20
74536;BMP180;63013;51.104;-115.370;2022-11-20T12:52:46;87390.20;;;18.20
74536;BMP180;63013;51.104;-115.370;2022-11-20T12:55:33;87403.00;;;18.20
74536;BMP180;63013;51.104;-115.370;2022-11-20T13:07:01;87422.60;;;18.10
74536;BMP180;63013;51.104;-115.370;2022-11-20T13:09:29;87435.60;;;18.10
74536;BMP180;63013;51.104;-115.370;2022-11-20T13:12:42;87444.00;;;18.10
74536;BMP180;63013;51.104;-115.370;2022-11-20T13:15:51;87448.00;;;18.10
74536;BMP180;63013;51.104;-115.370;2022-11-20T13:18:22;87448.40;;;18.10
74536;BMP180;63013;51.104;-115.370;2022-11-20T13:20:49;87457.00;;;18.10
74536;BMP180;63013;51.104;-115.370;2022-11-20T13:23:25;87457.60;;;18.02
74536;BMP180;63013;51.104;-115.370;2022-11-20T13:26:15;87457.80;;;18.00
74536;BMP180;63013;51.104;-115.370;2022-11-20T13:28:43;87461.40;;;18.00
74536;BMP180;63013;51.104;-115.370;2022-11-20T13:31:33;87450.40;;;18.00
74536;BMP180;63013;51.104;-115.370;2022-11-20T13:34:05;87453.00;;;18.00
74536;BMP180;63013;51.104;-115.370;2022-11-20T13:36:33;87451.20;;;18.00
74536;BMP180;63013;51.104;-115.370;2022-11-20T13:39:03;87449.60;;;17.94
74536;BMP180;63013;51.104;-115.370;2022-11-20T13:41:36;87463.20;;;17.90
74536;BMP180;63013;51.104;-115.370;2022-11-20T13:44:23;87469.00;;;17.96
74536;BMP180;63013;51.104;-115.370;2022-11-20T13:46:51;87458.00;;;18.00
74536;BMP180;63013;51.104;-115.370;2022-11-20T13:49:33;87457.20;;;18.00
74536;BMP180;63013;51.104;-115.370;2022-11-20T13:55:40;87452.80;;;18.10
74536;BMP180;63013;51.104;-115.370;2022-11-20T14:01:17;87452.00;;;18.10
74536;BMP180;63013;51.104;-115.370;2022-11-20T14:03:47;87449.80;;;18.10
74536;BMP180;63013;51.104;-115.370;2022-11-20T14:06:27;87444.40;;;18.20
74536;BMP180;63013;51.104;-115.370;2022-11-20T14:08:58;87441.20;;;18.22
74536;BMP180;63013;51.104;-115.370;2022-11-20T14:11:28;87419.20;;;18.30
74536;BMP180;63013;51.104;-115.370;2022-11-20T14:14:01;87405.40;;;18.30
74536;BMP180;63013;51.104;-115.370;2022-11-20T14:16:33;87404.80;;;18.40
74536;BMP180;63013;51.104;-115.370;2022-11-20T14:19:26;87402.80;;;18.40
74536;BMP180;63013;51.104;-115.370;2022-11-20T14:25:19;87407.40;;;18.50
74536;BMP180;63013;51.104;-115.370;2022-11-20T14:27:59;87413.80;;;18.60
74536;BMP180;63013;51.104;-115.370;2022-11-20T14:30:47;87412.60;;;18.60
74536;BMP180;63013;51.104;-115.370;2022-11-20T14:33:16;87408.60;;;18.70
74536;BMP180;63013;51.104;-115.370;2022-11-20T14:35:53;87418.20;;;18.70
74536;BMP180;63013;51.104;-115.370;2022-11-20T14:38:28;87424.80;;;18.80
74536;BMP180;63013;51.104;-115.370;2022-11-20T14:41:19;87422.60;;;18.86
74536;BMP180;63013;51.104;-115.370;2022-11-20T14:44:00;87415.40;;;18.90
74536;BMP180;63013;51.104;-115.370;2022-11-20T14:46:30;87414.60;;;19.00
74536;BMP180;63013;51.104;-115.370;2022-11-20T14:49:01;87402.00;;;19.00
74536;BMP180;63013;51.104;-115.370;2022-11-20T14:51:37;87403.80;;;19.10
74536;BMP180;63013;51.104;-115.370;2022-11-20T14:54:21;87409.00;;;19.12
74536;BMP180;63013;51.104;-115.370;2022-11-20T14:57:02;87414.20;;;19.20
74536;BMP180;63013;51.104;-115.370;2022-11-20T14:59:34;87410.40;;;19.20
74536;BMP180;63013;51.104;-115.370;2022-11-20T15:02:09;87423.20;;;19.30
74536;BMP180;63013;51.104;-115.370;2022-11-20T15:04:57;87447.20;;;19.40
74536;BMP180;63013;51.104;-115.370;2022-11-20T15:07:28;87429.60;;;19.40
74536;BMP180;63013;51.104;-115.370;2022-11-20T15:10:08;87442.60;;;19.50
74536;BMP180;63013;51.104;-115.370;2022-11-20T15:12:49;87441.20;;;19.50
74536;BMP180;63013;51.104;-115.370;2022-11-20T15:17:54;87442.20;;;19.62
74536;BMP180;63013;51.104;-115.370;2022-11-20T15:20:27;87440.80;;;19.70
74536;BMP180;63013;51.104;-115.370;2022-11-20T15:22:55;87452.40;;;19.74
74536;BMP180;63013;51.104;-115.370;2022-11-20T15:25:22;87453.20;;;19.80
74536;BMP180;63013;51.104;-115.370;2022-11-20T15:27:57;87456.40;;;19.90
74536;BMP180;63013;51.104;-115.370;2022-11-20T15:30:24;87452.80;;;20.00